Time;durP1;ratioP1;P1;durP2;ratioP2;P2;SDS_P1;SDS_P2;PMS_P1;PMS_P2;Temp;Humidity;BMP_temperature;BMP_pressure;BME280_temperature;BME280_humidity;BME280_pressure;Samples;Min_cycle;Max_cycle;Signal;HPM_P1;HPM_P2
2021/11/04 00:00:16;;;;;;;44.51;29.04;;;;;;;13.66;76.00;101416.63;458808;114;930163;-81
2021/11/04 00:01:20;;;;;;;41.82;29.62;;;;;;;13.67;75.98;101412.81;457942;114;922560;-81
2021/11/04 00:02:23;;;;;;;48.68;30.20;;;;;;;13.68;76.00;101416.39;459315;113;923014;-81
2021/11/04 00:03:27;;;;;;;45.97;28.99;;;;;;;13.70;75.97;101422.52;458684;114;930467;-80
2021/11/04 00:04:31;;;;;;;51.25;32.29;;;;;;;13.70;75.95;101423.36;459705;114;922348;-80
2021/11/04 00:05:35;;;;;;;51.09;31.96;;;;;;;13.71;75.94;101426.94;459269;114;923044;-80
2021/11/04 00:06:38;;;;;;;44.56;31.59;;;;;;;13.72;75.93;101426.73;449552;116;922737;-81
2021/11/04 00:07:42;;;;;;;53.06;33.54;;;;;;;13.73;75.93;101430.30;451659;114;922495;-79
2021/11/04 00:08:46;;;;;;;51.42;34.01;;;;;;;13.74;75.92;101435.56;459229;114;930660;-81
2021/11/04 00:09:49;;;;;;;54.91;35.33;;;;;;;13.74;75.85;101434.72;459242;114;922582;-81
2021/11/04 00:10:53;;;;;;;51.75;34.19;;;;;;;13.75;75.80;101437.26;448289;116;930594;-82
2021/11/04 00:11:57;;;;;;;51.96;35.32;;;;;;;13.75;75.73;101441.89;449788;114;923028;-81
2021/11/04 00:13:01;;;;;;;48.80;32.90;;;;;;;13.74;75.69;101445.69;456197;114;923055;-82
2021/11/04 00:14:05;;;;;;;51.70;34.44;;;;;;;13.74;75.85;101449.27;455082;114;930477;-81
2021/11/04 00:15:08;;;;;;;46.24;31.89;;;;;;;13.74;75.85;101449.27;456121;114;922799;-81
2021/11/04 00:16:14;;;;;;;46.40;31.96;;;;;;;13.74;75.77;101451.17;455197;114;923357;-81
2021/11/04 00:17:17;;;;;;;45.25;30.94;;;;;;;13.73;75.75;101439.36;455814;114;922817;-81
2021/11/04 00:18:21;;;;;;;45.17;31.45;;;;;;;13.73;75.71;101442.10;455269;114;923212;-81
2021/11/04 00:19:25;;;;;;;41.89;28.94;;;;;;;13.73;75.77;101444.00;455273;114;922715;-80
2021/11/04 00:20:34;;;;;;;42.49;30.52;;;;;;;13.73;75.77;101444.00;454420;114;930143;-81
2021/11/04 00:21:38;;;;;;;47.21;30.51;;;;;;;13.73;75.77;101442.10;449507;116;922727;-81
2021/11/04 00:22:43;;;;;;;46.36;30.96;;;;;;;13.74;75.75;101445.69;449471;114;923348;-81
2021/11/04 00:23:47;;;;;;;46.82;30.73;;;;;;;13.73;75.76;101447.58;429623;120;922764;-82
2021/11/04 00:24:51;;;;;;;46.75;29.95;;;;;;;13.73;75.72;101450.32;448343;114;923186;-81
2021/11/04 00:25:54;;;;;;;42.86;29.83;;;;;;;13.72;75.69;101454.15;454626;114;923035;-81
2021/11/04 00:26:58;;;;;;;39.78;27.74;;;;;;;13.73;75.76;101446.73;455206;114;930314;-81
2021/11/04 00:28:02;;;;;;;46.01;29.54;;;;;;;13.74;75.85;101445.69;455099;114;922947;-82
2021/11/04 00:29:05;;;;;;;42.50;30.41;;;;;;;13.74;75.85;101445.69;453890;114;922624;-82
2021/11/04 00:30:10;;;;;;;48.00;30.35;;;;;;;13.75;75.76;101448.22;454206;114;922528;-82
2021/11/04 00:31:13;;;;;;;46.31;30.03;;;;;;;13.75;75.75;101442.73;454512;114;923169;-81
2021/11/04 00:32:17;;;;;;;39.38;29.45;;;;;;;13.77;75.78;101446.13;454685;114;922644;-80
2021/11/04 00:33:21;;;;;;;45.50;29.81;;;;;;;13.79;75.78;101451.36;455400;114;923554;-81
2021/11/04 00:34:25;;;;;;;43.96;30.49;;;;;;;13.80;75.76;101453.05;456870;113;922728;-81
2021/11/04 00:35:28;;;;;;;42.31;29.36;;;;;;;13.82;75.72;101458.33;455177;114;922705;-80
2021/11/04 00:36:34;;;;;;;43.36;29.25;;;;;;;13.82;75.60;101453.69;454830;114;923197;-81
2021/11/04 00:37:37;;;;;;;48.21;30.88;;;;;;;13.80;75.53;101447.58;454455;114;923036;-81
2021/11/04 00:38:45;;;;;;;42.49;30.30;;;;;;;13.79;75.53;101451.36;455595;114;922964;-80
2021/11/04 00:39:46;;;;;;;45.37;30.39;;;;;;;13.78;75.50;101455.19;456221;114;930402;-80
2021/11/04 00:40:50;;;;;;;45.23;28.76;;;;;;;13.76;75.54;101455.39;454570;114;923398;-81
2021/11/04 00:41:54;;;;;;;39.52;29.75;;;;;;;13.75;75.53;101456.45;453978;114;930965;-81
2021/11/04 00:42:58;;;;;;;46.86;30.45;;;;;;;13.75;75.49;101455.59;454155;114;930290;-81
2021/11/04 00:44:02;;;;;;;45.98;30.67;;;;;;;13.73;75.51;101458.55;455279;114;930364;-80
2021/11/04 00:45:07;;;;;;;45.63;30.85;;;;;;;13.71;75.53;101457.94;445006;118;922548;-80
2021/11/04 00:46:13;;;;;;;50.06;31.10;;;;;;;13.69;75.60;101454.56;440825;119;922477;-80
2021/11/04 00:47:16;;;;;;;46.38;31.34;;;;;;;13.69;75.60;101461.94;440348;119;922629;-80
2021/11/04 00:48:20;;;;;;;50.19;33.20;;;;;;;13.69;75.63;101461.94;446990;116;923245;-80
2021/11/04 00:49:23;;;;;;;42.74;30.55;;;;;;;13.67;75.65;101461.33;438281;118;930735;-80
2021/11/04 00:50:27;;;;;;;42.91;29.98;;;;;;;13.65;75.70;101456.05;445866;116;930481;-80
2021/11/04 00:51:30;;;;;;;45.37;29.44;;;;;;;13.65;75.75;101453.31;445980;116;930185;-80
2021/11/04 00:52:35;;;;;;;44.00;31.64;;;;;;;13.65;75.73;101460.69;438165;121;927892;-80
2021/11/04 00:53:39;;;;;;;45.64;31.14;;;;;;;13.64;75.82;101456.25;449136;116;922763;-81
2021/11/04 00:54:43;;;;;;;46.79;32.09;;;;;;;13.65;75.95;101460.69;446192;117;922657;-79
2021/11/04 00:55:49;;;;;;;47.84;31.46;;;;;;;13.64;75.93;101461.73;444965;117;922630;-80
2021/11/04 00:56:52;;;;;;;52.56;31.78;;;;;;;13.65;75.89;101458.79;445217;116;923062;-80
2021/11/04 00:57:55;;;;;;;46.20;31.02;;;;;;;13.64;75.84;101462.58;445123;117;922825;-80
2021/11/04 00:58:59;;;;;;;47.87;31.76;;;;;;;13.64;75.92;101462.58;444923;118;922550;-80
2021/11/04 01:00:05;;;;;;;47.89;30.98;;;;;;;13.63;75.92;101460.89;445230;116;923234;-81
2021/11/04 01:01:09;;;;;;;40.67;29.89;;;;;;;13.62;75.90;101458.35;444864;117;922757;-80
2021/11/04 01:02:13;;;;;;;48.52;31.21;;;;;;;13.63;75.97;101458.15;436958;119;922615;-80
2021/11/04 01:03:17;;;;;;;45.34;30.32;;;;;;;13.63;76.04;101455.41;445061;117;930545;-81
2021/11/04 01:04:20;;;;;;;50.16;33.03;;;;;;;13.65;76.12;101458.79;440191;118;922823;-81
2021/11/04 01:05:24;;;;;;;44.03;30.72;;;;;;;13.66;76.05;101459.63;444416;116;930622;-81
2021/11/04 01:06:28;;;;;;;48.38;31.82;;;;;;;13.67;76.00;101456.66;445215;116;930537;-80
2021/11/04 01:07:32;;;;;;;44.04;31.34;;;;;;;13.66;75.98;101457.73;444902;116;922491;-81
2021/11/04 01:08:35;;;;;;;46.31;31.31;;;;;;;13.65;76.02;101453.31;445190;116;923032;-80
2021/11/04 01:09:39;;;;;;;47.40;30.70;;;;;;;13.65;76.02;101453.31;445157;118;930512;-80
2021/11/04 01:10:43;;;;;;;50.36;33.07;;;;;;;13.66;76.03;101448.67;446965;116;930303;-80
2021/11/04 01:11:47;;;;;;;48.93;31.41;;;;;;;13.66;76.10;101449.52;445225;116;930730;-82
2021/11/04 01:12:51;;;;;;;47.56;31.90;;;;;;;13.69;76.17;101446.34;447192;116;923229;-82
2021/11/04 01:13:55;;;;;;;50.73;32.54;;;;;;;13.72;76.15;101451.41;447809;116;922702;-81
2021/11/04 01:14:59;;;;;;;46.12;32.14;;;;;;;13.73;76.10;101455.80;447589;116;930496;-82
2021/11/04 01:16:03;;;;;;;44.89;32.86;;;;;;;13.74;76.05;101457.49;449066;116;923057;-81
2021/11/04 01:17:07;;;;;;;47.84;32.06;;;;;;;13.76;76.04;101466.36;459361;114;923433;-80
2021/11/04 01:18:11;;;;;;;49.51;33.18;;;;;;;13.77;76.00;101459.83;458602;114;923150;-81
2021/11/04 01:19:15;;;;;;;49.67;33.51;;;;;;;13.79;76.00;101465.07;457538;114;930293;-81
2021/11/04 01:20:20;;;;;;;49.57;33.69;;;;;;;13.79;75.97;101465.91;456808;113;930738;-81
2021/11/04 01:21:25;;;;;;;44.85;32.33;;;;;;;13.83;75.94;101476.47;457551;114;930507;-81
2021/11/04 01:22:28;;;;;;;55.51;33.39;;;;;;;13.85;75.86;101474.33;459472;114;922639;-81
2021/11/04 01:23:32;;;;;;;48.79;32.86;;;;;;;13.85;75.70;101479.81;459183;113;922671;-81
2021/11/04 01:24:36;;;;;;;50.55;33.44;;;;;;;13.84;75.60;101480.91;457081;114;922969;-81
2021/11/04 01:25:39;;;;;;;51.68;33.51;;;;;;;13.82;75.57;101483.00;458321;114;922476;-81
2021/11/04 01:26:43;;;;;;;49.73;32.46;;;;;;;13.79;75.55;101485.10;458286;113;930734;-81
2021/11/04 01:27:47;;;;;;;54.92;33.61;;;;;;;13.78;75.57;101474.37;456632;113;922591;-81
2021/11/04 01:28:51;;;;;;;47.76;32.17;;;;;;;13.77;75.57;101461.72;458507;114;922686;-81
2021/11/04 01:29:55;;;;;;;50.03;33.18;;;;;;;13.77;75.65;101467.20;458164;114;923177;-81
2021/11/04 01:30:59;;;;;;;53.49;33.55;;;;;;;13.77;75.69;101468.05;458584;114;922547;-81
2021/11/04 01:32:03;;;;;;;49.76;33.21;;;;;;;13.78;75.60;101468.89;457291;114;930562;-82
2021/11/04 01:33:07;;;;;;;49.68;34.62;;;;;;;13.77;75.59;101473.53;457446;114;930702;-82
2021/11/04 01:34:10;;;;;;;44.18;31.61;;;;;;;13.76;75.56;101477.32;458299;114;922791;-82
2021/11/04 01:35:14;;;;;;;48.11;31.41;;;;;;;13.76;75.59;101477.32;457757;114;922850;-82
2021/11/04 01:36:20;;;;;;;47.10;31.52;;;;;;;13.75;75.59;101480.27;458802;114;930392;-81
2021/11/04 01:37:23;;;;;;;48.59;32.62;;;;;;;13.74;75.57;101484.06;460150;114;923125;-82
2021/11/04 01:38:27;;;;;;;54.06;33.68;;;;;;;13.73;75.59;101490.59;458780;114;922575;-82
2021/11/04 01:39:31;;;;;;;52.97;33.44;;;;;;;13.71;75.57;101484.50;458672;114;923216;-81
2021/11/04 01:40:36;;;;;;;53.81;33.62;;;;;;;13.69;75.60;101486.60;457913;113;930492;-81
2021/11/04 01:41:40;;;;;;;49.97;33.29;;;;;;;13.68;75.67;101501.35;457894;114;922738;-82
2021/11/04 01:42:45;;;;;;;45.22;32.29;;;;;;;13.66;75.68;101498.00;460127;114;922402;-82
2021/11/04 01:43:49;;;;;;;52.73;32.62;;;;;;;13.65;75.84;101505.38;458427;114;922983;-81
2021/11/04 01:44:52;;;;;;;54.49;32.94;;;;;;;13.66;75.87;101498.84;458499;114;931178;-81
2021/11/04 01:45:56;;;;;;;58.66;35.04;;;;;;;13.67;75.84;101499.69;458937;114;930631;-81
2021/11/04 01:46:59;;;;;;;48.94;32.81;;;;;;;13.67;75.84;101507.91;458689;114;930594;-81
2021/11/04 01:48:04;;;;;;;48.14;33.75;;;;;;;13.68;75.96;101501.35;459007;113;930651;-81
2021/11/04 01:49:07;;;;;;;55.40;34.24;;;;;;;13.70;76.03;101494.62;457598;114;922994;-81
2021/11/04 01:50:15;;;;;;;49.84;33.56;;;;;;;13.72;76.07;101492.52;456985;114;923227;-81
2021/11/04 01:51:19;;;;;;;52.26;32.62;;;;;;;13.75;76.06;101497.56;457561;114;930654;-80
2021/11/04 01:52:23;;;;;;;47.01;32.10;;;;;;;13.80;76.03;101491.43;443758;118;923055;-81
2021/11/04 01:53:27;;;;;;;45.92;31.49;;;;;;;13.84;76.03;101491.87;444501;118;930513;-81
2021/11/04 01:54:31;;;;;;;48.03;31.81;;;;;;;13.87;75.99;101495.02;458918;114;931094;-81
2021/11/04 01:55:34;;;;;;;54.64;32.60;;;;;;;13.91;75.92;101500.89;457815;114;922566;-81
2021/11/04 01:56:40;;;;;;;50.77;33.19;;;;;;;13.92;75.80;101503.44;458087;114;930657;-82
2021/11/04 01:57:44;;;;;;;47.14;31.87;;;;;;;13.95;75.74;101508.47;458056;114;923403;-80
2021/11/04 01:58:47;;;;;;;49.71;32.32;;;;;;;13.99;75.65;101511.65;457625;114;923216;-81
2021/11/04 01:59:51;;;;;;;53.64;33.65;;;;;;;13.98;75.47;101519.03;458000;114;922654;-81
2021/11/04 02:00:57;;;;;;;55.18;32.73;;;;;;;13.96;75.34;101515.64;460486;114;922596;-80
2021/11/04 02:02:07;;;;;;;51.71;32.95;;;;;;;13.95;75.26;101522.18;457471;114;922578;-80
2021/11/04 02:03:26;;;;;;;56.96;32.94;;;;;;;13.93;75.24;101526.21;457331;114;922759;-80
2021/11/04 02:04:43;;;;;;;51.26;33.11;;;;;;;13.90;75.22;101537.59;459645;114;930656;-81
2021/11/04 02:06:09;;;;;;;52.25;32.81;;;;;;;13.85;75.22;101538.23;456981;114;923207;-80
2021/11/04 02:07:35;;;;;;;55.77;33.92;;;;;;;13.82;75.29;101548.80;457564;114;922560;-80
2021/11/04 02:08:48;;;;;;;50.22;32.03;;;;;;;13.77;75.35;101550.28;457948;113;923141;-81
2021/11/04 02:10:01;;;;;;;49.66;33.17;;;;;;;13.73;75.45;101557.22;456886;114;922847;-80
2021/11/04 02:11:14;;;;;;;47.37;32.23;;;;;;;13.70;75.53;101560.39;446229;114;923084;-81
2021/11/04 02:12:24;;;;;;;47.49;31.18;;;;;;;13.68;75.60;101561.65;458498;114;923088;-80
2021/11/04 02:13:34;;;;;;;44.91;30.54;;;;;;;13.65;75.76;101560.19;451710;115;922598;-81
2021/11/04 02:14:46;;;;;;;41.54;29.58;;;;;;;13.64;75.78;101565.87;450285;116;922561;-81
2021/11/04 02:15:53;;;;;;;44.91;30.88;;;;;;;13.64;75.88;101563.98;450417;116;930381;-82
2021/11/04 02:16:59;;;;;;;49.88;32.16;;;;;;;13.65;75.94;101559.34;450475;116;922430;-80
2021/11/04 02:18:07;;;;;;;46.78;32.37;;;;;;;13.66;75.95;101563.78;449542;115;923380;-81
2021/11/04 02:19:38;;;;;;;42.55;30.76;;;;;;;13.67;76.07;101557.25;444305;117;923081;-80
2021/11/04 02:21:09;;;;;;;42.74;30.07;;;;;;;13.69;76.15;101563.34;447877;116;922587;-79
2021/11/04 02:22:28;;;;;;;41.51;30.36;;;;;;;13.71;76.17;101556.61;450570;115;924208;-80
2021/11/04 02:23:44;;;;;;;46.92;31.47;;;;;;;13.75;76.18;101563.34;443449;116;923807;-81
2021/11/04 02:25:14;;;;;;;40.35;29.79;;;;;;;13.77;76.16;101555.77;451688;116;923266;-82
2021/11/04 02:26:22;;;;;;;51.00;31.94;;;;;;;13.81;76.11;101561.66;451515;115;922541;-80
2021/11/04 02:27:26;;;;;;;40.96;29.92;;;;;;;13.83;76.07;101554.07;449158;115;922847;-80
2021/11/04 02:28:31;;;;;;;44.59;30.44;;;;;;;13.86;76.00;101555.53;450340;116;922566;-80
2021/11/04 02:29:37;;;;;;;46.38;31.58;;;;;;;13.87;75.89;101557.22;452593;116;922341;-79
2021/11/04 02:30:41;;;;;;;41.58;31.03;;;;;;;13.88;75.74;101556.17;451303;115;922735;-81
2021/11/04 02:31:47;;;;;;;46.01;32.20;;;;;;;13.87;75.64;101560.80;451131;116;922904;-81
2021/11/04 02:32:53;;;;;;;48.60;31.18;;;;;;;13.85;75.55;101560.16;450302;116;922507;-79
2021/11/04 02:33:57;;;;;;;43.33;30.34;;;;;;;13.84;75.52;101560.40;450803;116;922939;-80
2021/11/04 02:35:01;;;;;;;46.56;31.47;;;;;;;13.83;75.55;101561.45;450070;115;922767;-80
2021/11/04 02:36:07;;;;;;;42.63;30.29;;;;;;;13.81;75.62;101560.80;451212;116;923305;-80
2021/11/04 02:37:11;;;;;;;46.80;31.33;;;;;;;13.83;75.72;101561.45;451156;116;923138;-80
2021/11/04 02:38:19;;;;;;;52.40;32.46;;;;;;;13.85;75.78;101560.16;451334;116;922860;-80
2021/11/04 02:39:28;;;;;;;59.92;34.73;;;;;;;13.87;75.72;101557.22;448152;116;922773;-81
2021/11/04 02:40:33;;;;;;;52.00;33.77;;;;;;;13.89;75.64;101560.60;450418;116;922469;-81
2021/11/04 02:41:37;;;;;;;52.18;33.44;;;;;;;13.90;75.59;101552.14;450165;116;922749;-81
2021/11/04 02:42:41;;;;;;;50.45;33.05;;;;;;;13.92;75.53;101557.42;450318;116;922505;-80
2021/11/04 02:43:45;;;;;;;57.23;33.79;;;;;;;13.92;75.44;101550.05;449528;115;922743;-80
2021/11/04 02:44:49;;;;;;;51.37;32.19;;;;;;;13.92;75.31;101558.27;449344;115;923579;-82
2021/11/04 02:45:53;;;;;;;52.12;33.16;;;;;;;13.89;75.13;101553.22;450069;116;923100;-79
2021/11/04 02:46:58;;;;;;;50.92;32.35;;;;;;;13.84;75.04;101555.73;450224;116;923105;-81
2021/11/04 02:48:01;;;;;;;52.15;32.28;;;;;;;13.79;75.02;101555.53;449880;116;922857;-82
2021/11/04 02:49:06;;;;;;;53.58;32.85;;;;;;;13.75;75.06;101562.50;449394;116;922687;-79
2021/11/04 02:50:10;;;;;;;56.85;31.78;;;;;;;13.72;75.13;101566.52;450532;116;922583;-81
2021/11/04 02:51:14;;;;;;;55.32;33.45;;;;;;;13.68;75.21;101572.61;450396;115;930559;-79
2021/11/04 02:52:18;;;;;;;56.28;33.56;;;;;;;13.66;75.26;101564.63;445048;117;922905;-81
2021/11/04 02:53:25;;;;;;;54.14;32.11;;;;;;;13.66;75.37;101572.00;444042;116;922745;-79
2021/11/04 02:54:28;;;;;;;46.22;31.52;;;;;;;13.64;75.42;101572.20;452724;116;923184;-81
2021/11/04 02:55:35;;;;;;;52.35;32.76;;;;;;;13.64;75.45;101569.46;442283;118;922575;-81
2021/11/04 02:56:44;;;;;;;53.73;32.84;;;;;;;13.64;75.43;101568.61;432980;120;922795;-81
2021/11/04 02:57:49;;;;;;;44.49;31.28;;;;;;;13.63;75.42;101573.25;441908;118;923151;-81
2021/11/04 02:58:56;;;;;;;43.19;30.78;;;;;;;13.62;75.41;101573.45;441621;118;922668;-80
2021/11/04 03:00:00;;;;;;;45.82;31.76;;;;;;;13.60;75.41;101576.42;433353;121;923067;-80
2021/11/04 03:01:04;;;;;;;42.27;30.29;;;;;;;13.60;75.42;101575.58;435096;120;922695;-80
2021/11/04 03:02:08;;;;;;;50.87;31.97;;;;;;;13.57;75.46;101582.30;441678;119;923046;-80
2021/11/04 03:03:12;;;;;;;48.36;33.51;;;;;;;13.56;75.49;101574.32;441496;118;923049;-78
2021/11/04 03:04:18;;;;;;;46.02;32.25;;;;;;;13.55;75.54;101569.89;440763;119;923131;-80
2021/11/04 03:05:21;;;;;;;42.81;30.64;;;;;;;13.55;75.73;101570.73;441565;119;923308;-81
2021/11/04 03:06:26;;;;;;;45.61;31.24;;;;;;;13.56;75.77;101572.39;433556;121;923051;-81
2021/11/04 03:07:29;;;;;;;41.05;29.72;;;;;;;13.58;75.68;101572.19;433674;119;930491;-81
2021/11/04 03:08:33;;;;;;;43.71;31.95;;;;;;;13.59;75.62;101582.95;441578;118;923015;-81
2021/11/04 03:09:37;;;;;;;43.43;30.43;;;;;;;13.58;75.61;101578.52;441437;118;922930;-80
2021/11/04 03:10:41;;;;;;;41.37;29.36;;;;;;;13.58;75.55;101578.52;433719;121;930514;-80
2021/11/04 03:11:45;;;;;;;44.17;30.56;;;;;;;13.57;75.58;101579.56;433674;119;922477;-81
2021/11/04 03:12:49;;;;;;;43.43;30.06;;;;;;;13.57;75.57;101579.56;442779;118;929953;-81
2021/11/04 03:13:53;;;;;;;45.59;31.70;;;;;;;13.57;75.52;101585.05;443092;118;922356;-81
2021/11/04 03:14:57;;;;;;;48.13;31.04;;;;;;;13.56;75.58;101583.35;442945;118;922189;-81
2021/11/04 03:16:03;;;;;;;43.40;30.39;;;;;;;13.57;75.62;101585.05;435239;120;929976;-81
2021/11/04 03:17:07;;;;;;;43.92;30.26;;;;;;;13.57;75.58;101581.46;433140;120;922259;-81
2021/11/04 03:18:12;;;;;;;36.93;29.09;;;;;;;13.56;75.48;101583.35;444985;117;922484;-82
2021/11/04 03:19:18;;;;;;;40.29;29.79;;;;;;;13.55;75.52;101578.95;443548;117;922553;-80
2021/11/04 03:20:23;;;;;;;42.52;30.96;;;;;;;13.55;75.63;101578.11;443684;117;922699;-80
2021/11/04 03:21:31;;;;;;;40.04;29.88;;;;;;;13.56;75.67;101582.54;444749;117;922561;-80
2021/11/04 03:22:35;;;;;;;44.51;29.99;;;;;;;13.56;75.67;101580.61;444061;117;922667;-81
2021/11/04 03:23:39;;;;;;;36.36;28.38;;;;;;;13.58;75.59;101580.41;443997;117;922493;-80
2021/11/04 03:24:43;;;;;;;40.67;29.84;;;;;;;13.56;75.51;101583.35;442797;117;923088;-81
2021/11/04 03:25:47;;;;;;;45.49;30.52;;;;;;;13.56;75.41;101588.02;436000;120;922530;-81
2021/11/04 03:27:03;;;;;;;38.76;28.76;;;;;;;13.54;75.34;101584.64;436929;120;922739;-81
2021/11/04 03:28:07;;;;;;;44.90;28.96;;;;;;;13.51;75.33;101587.78;442692;117;922627;-81
2021/11/04 03:29:13;;;;;;;37.76;29.12;;;;;;;13.48;75.31;101582.73;444034;117;922789;-81
2021/11/04 03:30:20;;;;;;;41.79;29.42;;;;;;;13.46;75.31;101590.30;441304;120;922666;-81
2021/11/04 03:31:25;;;;;;;38.34;29.66;;;;;;;13.43;75.31;101590.73;441432;119;922581;-81
2021/11/04 03:32:28;;;;;;;36.92;28.48;;;;;;;13.42;75.32;101597.27;441987;118;922756;-81
2021/11/04 03:33:33;;;;;;;37.67;28.93;;;;;;;13.39;75.34;101594.95;435083;120;922851;-81
2021/11/04 03:34:38;;;;;;;41.95;29.27;;;;;;;13.37;75.34;101597.89;435709;120;930578;-81
2021/11/04 03:35:42;;;;;;;43.75;29.56;;;;;;;13.35;75.37;101589.03;439958;118;930494;-81
2021/11/04 03:36:49;;;;;;;39.82;29.49;;;;;;;13.34;75.38;101592.84;439839;118;923358;-79
2021/11/04 03:37:53;;;;;;;41.97;30.16;;;;;;;13.33;75.35;101597.48;441352;118;923221;-80
2021/11/04 03:39:01;;;;;;;45.08;30.34;;;;;;;13.31;75.35;101593.24;443073;117;922887;-81
2021/11/04 03:40:07;;;;;;;41.03;29.34;;;;;;;13.30;75.40;101591.55;442150;117;923175;-81
2021/11/04 03:41:12;;;;;;;37.35;29.32;;;;;;;13.30;75.39;101597.03;433757;120;922734;-82
2021/11/04 03:42:16;;;;;;;37.66;28.32;;;;;;;13.29;75.40;101595.34;440086;118;923099;-80
2021/11/04 03:43:20;;;;;;;41.03;30.09;;;;;;;13.30;75.52;101605.25;438054;120;922965;-79
2021/11/04 03:44:25;;;;;;;38.14;29.37;;;;;;;13.31;75.53;101595.98;436433;120;922855;-81
2021/11/04 03:45:30;;;;;;;40.34;29.49;;;;;;;13.32;75.46;101594.94;435701;120;930563;-80
2021/11/04 03:46:34;;;;;;;39.51;29.46;;;;;;;13.33;75.52;101600.22;436351;120;923194;-83
2021/11/04 03:47:39;;;;;;;36.80;28.56;;;;;;;13.35;75.62;101603.57;436659;120;922641;-80
2021/11/04 03:48:45;;;;;;;43.68;29.32;;;;;;;13.39;75.61;101601.28;440046;118;922921;-80
2021/11/04 03:49:51;;;;;;;42.55;28.74;;;;;;;13.40;75.48;101602.94;434726;120;923132;-80
2021/11/04 03:50:57;;;;;;;38.47;29.43;;;;;;;13.42;75.35;101610.96;434215;120;923098;-78
2021/11/04 03:52:01;;;;;;;42.01;30.19;;;;;;;13.42;75.23;101602.74;444791;117;922708;-80
2021/11/04 03:53:05;;;;;;;35.92;28.68;;;;;;;13.42;75.19;101610.96;445889;117;922874;-79
2021/11/04 03:54:11;;;;;;;37.46;28.64;;;;;;;13.41;75.17;101599.16;443626;117;923555;-78
2021/11/04 03:55:17;;;;;;;39.27;28.29;;;;;;;13.42;75.19;101600.00;445925;117;930266;-79
2021/11/04 03:56:22;;;;;;;40.72;30.07;;;;;;;13.42;75.19;101602.74;445600;117;922546;-81
2021/11/04 03:57:26;;;;;;;40.50;29.57;;;;;;;13.43;75.17;101607.17;442976;116;922261;-80
2021/11/04 03:58:30;;;;;;;40.84;30.03;;;;;;;13.44;75.14;101606.13;443568;117;922381;-81
2021/11/04 03:59:34;;;;;;;39.85;30.11;;;;;;;13.43;75.10;101604.44;443268;118;922867;-79
2021/11/04 04:00:38;;;;;;;38.24;29.64;;;;;;;13.42;75.04;101611.81;442996;117;922232;-80
2021/11/04 04:01:42;;;;;;;40.52;29.49;;;;;;;13.41;75.03;101614.75;443210;116;930382;-79
2021/11/04 04:02:46;;;;;;;39.63;28.91;;;;;;;;;;441612;118;922192;-80
2021/11/04 04:03:50;;;;;;;42.31;29.52;;;;;;;13.39;75.05;101612.23;445812;117;930289;-79
2021/11/04 04:04:55;;;;;;;38.61;29.93;;;;;;;13.38;75.00;101613.28;441837;118;922877;-81
2021/11/04 04:06:04;;;;;;;42.45;29.50;;;;;;;13.37;74.98;101611.59;434492;120;922758;-82
2021/11/04 04:07:07;;;;;;;34.63;29.11;;;;;;;13.36;74.99;101615.38;442902;118;923203;-82
2021/11/04 04:08:11;;;;;;;36.54;28.38;;;;;;;13.35;75.00;101627.38;441098;118;922746;-79
2021/11/04 04:09:16;;;;;;;39.73;29.41;;;;;;;13.33;75.05;101624.88;443276;118;922788;-82
2021/11/04 04:10:20;;;;;;;38.34;28.72;;;;;;;13.34;75.08;101628.45;441863;118;922453;-80
2021/11/04 04:11:23;;;;;;;35.36;29.61;;;;;;;13.32;75.10;101628.66;443524;118;922894;-79
2021/11/04 04:12:27;;;;;;;35.15;28.58;;;;;;;13.31;75.17;101634.33;443819;117;930568;-79
2021/11/04 04:13:31;;;;;;;33.74;27.46;;;;;;;13.31;75.18;101637.91;445030;117;930596;-78
2021/11/04 04:14:35;;;;;;;39.57;27.71;;;;;;;13.31;75.21;101637.91;448892;116;923066;-79
2021/11/04 04:15:41;;;;;;;34.77;27.79;;;;;;;13.31;75.20;101637.07;449284;116;922764;-81
2021/11/04 04:16:44;;;;;;;30.14;26.95;;;;;;;13.31;75.21;101648.03;443817;117;922676;-78
2021/11/04 04:17:48;;;;;;;35.12;27.86;;;;;;;13.31;75.21;101651.61;449313;116;930560;-80
2021/11/04 04:18:52;;;;;;;34.53;27.82;;;;;;;13.30;75.21;101647.18;449348;116;923266;-80
2021/11/04 04:19:56;;;;;;;35.18;28.06;;;;;;;13.29;75.15;101650.96;443872;117;930565;-80
2021/11/04 04:20:59;;;;;;;35.38;28.12;;;;;;;13.28;75.17;101654.78;449542;116;922754;-79
2021/11/04 04:22:03;;;;;;;35.97;28.52;;;;;;;13.27;75.21;101652.23;448641;116;930602;-80
2021/11/04 04:23:07;;;;;;;34.78;28.15;;;;;;;13.26;75.23;101651.39;449243;116;930532;-81
2021/11/04 04:24:11;;;;;;;33.41;27.64;;;;;;;13.26;75.24;101654.13;447986;116;922992;-81
2021/11/04 04:25:14;;;;;;;40.26;30.13;;;;;;;13.25;75.30;101651.59;448887;116;931115;-80
2021/11/04 04:26:19;;;;;;;38.06;30.04;;;;;;;13.27;75.37;101646.77;447372;116;922814;-79
2021/11/04 04:27:22;;;;;;;38.29;28.99;;;;;;;13.27;75.38;101650.34;449130;116;928155;-80
2021/11/04 04:28:26;;;;;;;34.73;28.95;;;;;;;13.29;75.37;101653.70;447525;116;930550;-80
2021/11/04 04:29:29;;;;;;;38.26;29.57;;;;;;;13.31;75.36;101659.83;447904;116;923098;-81
2021/11/04 04:30:33;;;;;;;36.49;30.59;;;;;;;13.32;75.36;101656.05;448268;116;930677;-79
2021/11/04 04:31:36;;;;;;;39.71;29.63;;;;;;;13.32;75.32;101656.05;447732;116;923119;-81
2021/11/04 04:32:40;;;;;;;36.34;28.78;;;;;;;13.33;75.41;101660.48;447981;116;930628;-79
2021/11/04 04:33:44;;;;;;;38.54;29.99;;;;;;;13.35;75.39;101665.73;449607;116;930567;-82
2021/11/04 04:34:47;;;;;;;36.99;30.49;;;;;;;13.36;75.42;101664.69;447869;116;931074;-80
2021/11/04 04:35:51;;;;;;;39.39;31.00;;;;;;;13.38;75.48;101664.48;439360;118;925528;-79
2021/11/04 04:36:54;;;;;;;37.34;30.62;;;;;;;13.41;75.48;101669.53;448416;116;930562;-81
2021/11/04 04:37:58;;;;;;;36.52;30.13;;;;;;;13.43;75.50;101670.19;449920;116;922518;-82
2021/11/04 04:39:03;;;;;;;44.12;31.64;;;;;;;13.45;75.45;101666.20;448712;116;922803;-79
2021/11/04 04:40:07;;;;;;;36.74;31.19;;;;;;;13.48;75.37;101668.52;443607;118;930215;-81
2021/11/04 04:41:11;;;;;;;39.14;30.06;;;;;;;13.51;75.34;101669.97;448805;116;930647;-80
2021/11/04 04:42:15;;;;;;;38.44;30.34;;;;;;;13.52;75.34;101661.55;449127;116;922592;-79
2021/11/04 04:43:18;;;;;;;39.78;30.93;;;;;;;13.54;75.33;101673.16;450312;116;923572;-79
2021/11/04 04:44:22;;;;;;;39.19;31.36;;;;;;;13.57;75.28;101669.15;448604;116;930778;-81
2021/11/04 04:45:25;;;;;;;39.64;31.39;;;;;;;13.59;75.23;101667.91;448765;116;922570;-81
2021/11/04 04:46:29;;;;;;;42.56;31.65;;;;;;;;;;448739;116;922642;-82
2021/11/04 04:47:33;;;;;;;41.54;31.58;;;;;;;13.61;75.01;101673.19;443543;118;922385;-80
2021/11/04 04:48:37;;;;;;;38.36;30.95;;;;;;;13.62;75.00;101681.17;449706;116;922381;-81
2021/11/04 04:49:40;;;;;;;37.92;29.91;;;;;;;13.63;74.97;101679.28;450684;116;922659;-83
2021/11/04 04:50:45;;;;;;;40.18;31.01;;;;;;;13.63;74.90;101682.87;449035;116;922549;-80
2021/11/04 04:51:49;;;;;;;41.02;31.88;;;;;;;13.65;74.90;101682.67;448069;116;923209;-81
2021/11/04 04:52:52;;;;;;;40.96;30.67;;;;;;;13.65;74.91;101683.52;447826;116;923052;-81